sensor_id;sensor_type;location;lat;lon;timestamp;temperature;humidity
19435;DHT22;9853;50.848;4.108;2023-04-16T00:00:10;9.30;99.90
19435;DHT22;9853;50.848;4.108;2023-04-16T00:02:14;9.30;99.90
19435;DHT22;9853;50.848;4.108;2023-04-16T00:04:15;9.30;99.90
19435;DHT22;9853;50.848;4.108;2023-04-16T00:06:16;9.10;99.90
19435;DHT22;9853;50.848;4.108;2023-04-16T00:08:16;9.00;99.90
19435;DHT22;9853;50.848;4.108;2023-04-16T00:10:17;8.90;99.90
19435;DHT22;9853;50.848;4.108;2023-04-16T00:12:18;9.00;99.90
19435;DHT22;9853;50.848;4.108;2023-04-16T00:14:19;8.90;99.90
19435;DHT22;9853;50.848;4.108;2023-04-16T00:16:19;8.80;99.90
19435;DHT22;9853;50.848;4.108;2023-04-16T00:18:20;8.60;99.90
19435;DHT22;9853;50.848;4.108;2023-04-16T00:20:21;8.60;99.90
19435;DHT22;9853;50.848;4.108;2023-04-16T00:22:22;8.50;99.90
19435;DHT22;9853;50.848;4.108;2023-04-16T00:24:23;8.60;99.90
19435;DHT22;9853;50.848;4.108;2023-04-16T00:26:23;8.70;99.90
19435;DHT22;9853;50.848;4.108;2023-04-16T00:28:25;8.70;99.90
19435;DHT22;9853;50.848;4.108;2023-04-16T00:30:26;8.70;99.90
19435;DHT22;9853;50.848;4.108;2023-04-16T00:32:28;8.70;99.90
19435;DHT22;9853;50.848;4.108;2023-04-16T00:34:29;8.70;99.90
19435;DHT22;9853;50.848;4.108;2023-04-16T00:36:30;8.80;99.90
19435;DHT22;9853;50.848;4.108;2023-04-16T00:38:31;8.80;99.90
19435;DHT22;9853;50.848;4.108;2023-04-16T00:40:32;8.80;99.90
19435;DHT22;9853;50.848;4.108;2023-04-16T00:42:32;8.90;99.90
19435;DHT22;9853;50.848;4.108;2023-04-16T00:44:34;9.00;99.90
19435;DHT22;9853;50.848;4.108;2023-04-16T00:46:36;9.00;99.90
19435;DHT22;9853;50.848;4.108;2023-04-16T00:48:37;9.00;99.90
19435;DHT22;9853;50.848;4.108;2023-04-16T00:50:39;9.00;99.90
19435;DHT22;9853;50.848;4.108;2023-04-16T00:52:39;9.00;99.90
19435;DHT22;9853;50.848;4.108;2023-04-16T00:54:40;8.90;99.90
19435;DHT22;9853;50.848;4.108;2023-04-16T00:56:41;8.90;99.90
19435;DHT22;9853;50.848;4.108;2023-04-16T00:58:42;8.80;99.90
19435;DHT22;9853;50.848;4.108;2023-04-16T01:00:43;8.80;99.90
19435;DHT22;9853;50.848;4.108;2023-04-16T01:02:43;8.80;99.90
19435;DHT22;9853;50.848;4.108;2023-04-16T01:04:44;8.80;99.90
19435;DHT22;9853;50.848;4.108;2023-04-16T01:06:45;8.70;99.90
19435;DHT22;9853;50.848;4.108;2023-04-16T01:08:46;8.70;99.90
19435;DHT22;9853;50.848;4.108;2023-04-16T01:10:47;8.80;99.90
19435;DHT22;9853;50.848;4.108;2023-04-16T01:12:48;8.80;99.90
19435;DHT22;9853;50.848;4.108;2023-04-16T01:14:49;8.80;99.90
19435;DHT22;9853;50.848;4.108;2023-04-16T01:16:50;8.80;99.90
19435;DHT22;9853;50.848;4.108;2023-04-16T01:18:51;8.80;99.90
19435;DHT22;9853;50.848;4.108;2023-04-16T01:20:51;8.90;99.90
19435;DHT22;9853;50.848;4.108;2023-04-16T01:22:52;9.00;99.90
19435;DHT22;9853;50.848;4.108;2023-04-16T01:24:53;9.10;99.90
19435;DHT22;9853;50.848;4.108;2023-04-16T01:26:53;9.00;99.90
19435;DHT22;9853;50.848;4.108;2023-04-16T01:28:54;8.80;99.90
19435;DHT22;9853;50.848;4.108;2023-04-16T01:30:55;8.90;99.90
19435;DHT22;9853;50.848;4.108;2023-04-16T01:33:14;9.00;99.90
19435;DHT22;9853;50.848;4.108;2023-04-16T01:35:15;9.00;99.90
19435;DHT22;9853;50.848;4.108;2023-04-16T01:37:18;9.10;99.90
19435;DHT22;9853;50.848;4.108;2023-04-16T01:39:20;9.20;99.90
19435;DHT22;9853;50.848;4.108;2023-04-16T01:41:20;9.10;99.90
19435;DHT22;9853;50.848;4.108;2023-04-16T01:43:22;8.90;99.90
19435;DHT22;9853;50.848;4.108;2023-04-16T01:45:22;8.80;99.90
19435;DHT22;9853;50.848;4.108;2023-04-16T01:47:23;9.00;99.90
19435;DHT22;9853;50.848;4.108;2023-04-16T01:49:24;9.30;99.90
19435;DHT22;9853;50.848;4.108;2023-04-16T01:51:25;9.50;99.90
19435;DHT22;9853;50.848;4.108;2023-04-16T01:53:26;9.50;99.90
19435;DHT22;9853;50.848;4.108;2023-04-16T01:55:27;9.40;99.90
19435;DHT22;9853;50.848;4.108;2023-04-16T01:57:28;9.20;99.90
19435;DHT22;9853;50.848;4.108;2023-04-16T01:59:29;9.20;99.90
19435;DHT22;9853;50.848;4.108;2023-04-16T02:01:30;9.20;99.90
19435;DHT22;9853;50.848;4.108;2023-04-16T02:03:31;9.10;99.90
19435;DHT22;9853;50.848;4.108;2023-04-16T02:05:31;9.00;99.90
19435;DHT22;9853;50.848;4.108;2023-04-16T02:07:32;8.90;99.90
19435;DHT22;9853;50.848;4.108;2023-04-16T02:09:34;9.00;99.90
19435;DHT22;9853;50.848;4.108;2023-04-16T02:11:37;9.10;99.90
19435;DHT22;9853;50.848;4.108;2023-04-16T02:13:38;9.20;99.90
19435;DHT22;9853;50.848;4.108;2023-04-16T02:15:39;9.60;99.90
19435;DHT22;9853;50.848;4.108;2023-04-16T02:17:40;9.60;99.90
19435;DHT22;9853;50.848;4.108;2023-04-16T02:19:43;9.70;99.90
19435;DHT22;9853;50.848;4.108;2023-04-16T02:21:44;9.80;99.90
19435;DHT22;9853;50.848;4.108;2023-04-16T02:23:45;9.80;99.90
19435;DHT22;9853;50.848;4.108;2023-04-16T02:25:47;9.80;99.90
19435;DHT22;9853;50.848;4.108;2023-04-16T02:27:49;9.50;99.90
19435;DHT22;9853;50.848;4.108;2023-04-16T02:30:10;9.50;99.90
19435;DHT22;9853;50.848;4.108;2023-04-16T02:32:11;9.30;99.90
19435;DHT22;9853;50.848;4.108;2023-04-16T02:34:12;9.60;99.90
19435;DHT22;9853;50.848;4.108;2023-04-16T02:36:13;9.70;99.90
19435;DHT22;9853;50.848;4.108;2023-04-16T02:38:13;9.80;99.90
19435;DHT22;9853;50.848;4.108;2023-04-16T02:40:14;9.70;99.90
19435;DHT22;9853;50.848;4.108;2023-04-16T02:42:15;10.10;99.90
19435;DHT22;9853;50.848;4.108;2023-04-16T02:44:16;9.80;99.90
19435;DHT22;9853;50.848;4.108;2023-04-16T02:46:16;9.80;99.90
19435;DHT22;9853;50.848;4.108;2023-04-16T02:48:17;9.90;99.90
19435;DHT22;9853;50.848;4.108;2023-04-16T02:50:18;10.00;99.90
19435;DHT22;9853;50.848;4.108;2023-04-16T02:52:19;9.60;99.90
19435;DHT22;9853;50.848;4.108;2023-04-16T02:54:19;9.50;99.90
19435;DHT22;9853;50.848;4.108;2023-04-16T02:56:20;9.30;99.90
19435;DHT22;9853;50.848;4.108;2023-04-16T02:58:22;9.20;99.90
19435;DHT22;9853;50.848;4.108;2023-04-16T03:00:23;9.20;99.90
19435;DHT22;9853;50.848;4.108;2023-04-16T09:04:14;11.00;99.90
19435;DHT22;9853;50.848;4.108;2023-04-16T09:06:15;11.00;99.90
19435;DHT22;9853;50.848;4.108;2023-04-16T09:08:17;10.80;99.90
19435;DHT22;9853;50.848;4.108;2023-04-16T09:10:19;10.70;99.90
19435;DHT22;9853;50.848;4.108;2023-04-16T09:12:23;10.60;99.90
19435;DHT22;9853;50.848;4.108;2023-04-16T09:14:24;10.60;99.90
19435;DHT22;9853;50.848;4.108;2023-04-16T09:16:25;10.60;99.90
19435;DHT22;9853;50.848;4.108;2023-04-16T09:18:27;10.40;99.90
19435;DHT22;9853;50.848;4.108;2023-04-16T09:20:28;10.40;99.90
19435;DHT22;9853;50.848;4.108;2023-04-16T09:22:28;10.40;99.90
19435;DHT22;9853;50.848;4.108;2023-04-16T09:24:29;10.20;99.90
19435;DHT22;9853;50.848;4.108;2023-04-16T09:26:31;10.40;99.90
19435;DHT22;9853;50.848;4.108;2023-04-16T09:28:42;10.70;99.90
19435;DHT22;9853;50.848;4.108;2023-04-16T09:30:43;10.80;99.90
19435;DHT22;9853;50.848;4.108;2023-04-16T09:32:44;10.80;99.90
19435;DHT22;9853;50.848;4.108;2023-04-16T09:34:58;11.10;99.90
19435;DHT22;9853;50.848;4.108;2023-04-16T09:37:15;10.70;99.90
19435;DHT22;9853;50.848;4.108;2023-04-16T09:39:19;10.60;99.90
19435;DHT22;9853;50.848;4.108;2023-04-16T09:41:25;10.90;99.90
19435;DHT22;9853;50.848;4.108;2023-04-16T09:43:26;11.30;99.90
19435;DHT22;9853;50.848;4.108;2023-04-16T09:45:30;11.30;99.90
19435;DHT22;9853;50.848;4.108;2023-04-16T09:47:42;11.30;99.90
19435;DHT22;9853;50.848;4.108;2023-04-16T09:49:44;11.00;99.90
19435;DHT22;9853;50.848;4.108;2023-04-16T09:51:46;10.80;99.90
19435;DHT22;9853;50.848;4.108;2023-04-16T09:53:51;11.00;99.90
19435;DHT22;9853;50.848;4.108;2023-04-16T09:56:04;11.20;99.90
19435;DHT22;9853;50.848;4.108;2023-04-16T09:58:05;10.90;99.90
19435;DHT22;9853;50.848;4.108;2023-04-16T10:00:08;10.80;99.90
19435;DHT22;9853;50.848;4.108;2023-04-16T10:02:08;10.60;99.90
19435;DHT22;9853;50.848;4.108;2023-04-16T10:04:09;10.60;99.90
19435;DHT22;9853;50.848;4.108;2023-04-16T10:06:14;10.70;99.90
19435;DHT22;9853;50.848;4.108;2023-04-16T10:08:15;10.90;99.90
19435;DHT22;9853;50.848;4.108;2023-04-16T10:10:16;11.10;99.90
19435;DHT22;9853;50.848;4.108;2023-04-16T10:12:18;11.40;99.90
19435;DHT22;9853;50.848;4.108;2023-04-16T10:14:19;11.30;99.90
19435;DHT22;9853;50.848;4.108;2023-04-16T10:16:21;11.20;99.90
19435;DHT22;9853;50.848;4.108;2023-04-16T10:18:22;10.90;99.90
19435;DHT22;9853;50.848;4.108;2023-04-16T10:20:23;11.10;99.90
19435;DHT22;9853;50.848;4.108;2023-04-16T10:22:24;10.80;99.90
19435;DHT22;9853;50.848;4.108;2023-04-16T10:24:29;10.50;99.90
19435;DHT22;9853;50.848;4.108;2023-04-16T10:26:30;10.50;99.90
19435;DHT22;9853;50.848;4.108;2023-04-16T10:28:32;10.70;99.90
19435;DHT22;9853;50.848;4.108;2023-04-16T10:30:35;10.80;99.90
19435;DHT22;9853;50.848;4.108;2023-04-16T10:32:37;10.80;99.90
19435;DHT22;9853;50.848;4.108;2023-04-16T10:34:38;10.80;99.90
19435;DHT22;9853;50.848;4.108;2023-04-16T10:36:40;10.90;99.90
19435;DHT22;9853;50.848;4.108;2023-04-16T10:38:51;10.80;99.90
19435;DHT22;9853;50.848;4.108;2023-04-16T10:40:59;11.10;99.90
19435;DHT22;9853;50.848;4.108;2023-04-16T10:43:01;11.20;99.90
19435;DHT22;9853;50.848;4.108;2023-04-16T10:45:02;11.20;99.90
19435;DHT22;9853;50.848;4.108;2023-04-16T10:47:09;11.20;99.90
19435;DHT22;9853;50.848;4.108;2023-04-16T10:49:18;11.40;99.90
19435;DHT22;9853;50.848;4.108;2023-04-16T10:51:26;11.40;99.90
19435;DHT22;9853;50.848;4.108;2023-04-16T10:53:27;11.30;99.90
19435;DHT22;9853;50.848;4.108;2023-04-16T10:55:28;11.30;99.90
19435;DHT22;9853;50.848;4.108;2023-04-16T10:57:29;11.20;99.90
19435;DHT22;9853;50.848;4.108;2023-04-16T10:59:32;11.30;99.90
19435;DHT22;9853;50.848;4.108;2023-04-16T11:01:40;11.10;99.90
19435;DHT22;9853;50.848;4.108;2023-04-16T11:03:46;10.90;99.90
19435;DHT22;9853;50.848;4.108;2023-04-16T11:05:47;11.10;99.90
19435;DHT22;9853;50.848;4.108;2023-04-16T11:07:47;11.00;99.90
19435;DHT22;9853;50.848;4.108;2023-04-16T11:10:05;10.90;99.90
19435;DHT22;9853;50.848;4.108;2023-04-16T11:12:06;11.10;99.90
19435;DHT22;9853;50.848;4.108;2023-04-16T11:14:09;11.10;99.90
19435;DHT22;9853;50.848;4.108;2023-04-16T11:16:15;11.30;99.90
19435;DHT22;9853;50.848;4.108;2023-04-16T11:18:18;11.20;99.90
19435;DHT22;9853;50.848;4.108;2023-04-16T11:20:24;11.20;99.90
19435;DHT22;9853;50.848;4.108;2023-04-16T11:22:26;11.30;99.90
19435;DHT22;9853;50.848;4.108;2023-04-16T11:24:30;11.10;99.90
19435;DHT22;9853;50.848;4.108;2023-04-16T11:26:31;11.30;99.90
19435;DHT22;9853;50.848;4.108;2023-04-16T11:28:33;10.90;99.90
19435;DHT22;9853;50.848;4.108;2023-04-16T11:30:35;10.70;99.90
19435;DHT22;9853;50.848;4.108;2023-04-16T11:32:37;10.60;99.90
19435;DHT22;9853;50.848;4.108;2023-04-16T11:34:44;10.50;99.90
19435;DHT22;9853;50.848;4.108;2023-04-16T11:36:46;10.40;99.90
19435;DHT22;9853;50.848;4.108;2023-04-16T11:38:47;10.10;99.90
19435;DHT22;9853;50.848;4.108;2023-04-16T11:40:48;10.00;99.90
19435;DHT22;9853;50.848;4.108;2023-04-16T11:42:50;10.40;99.90
19435;DHT22;9853;50.848;4.108;2023-04-16T11:44:54;10.80;99.90
19435;DHT22;9853;50.848;4.108;2023-04-16T11:46:55;10.90;99.90
19435;DHT22;9853;50.848;4.108;2023-04-16T11:48:56;11.10;99.90
19435;DHT22;9853;50.848;4.108;2023-04-16T11:50:57;11.30;99.90
19435;DHT22;9853;50.848;4.108;2023-04-16T11:53:03;11.20;99.90
19435;DHT22;9853;50.848;4.108;2023-04-16T11:55:04;11.30;99.90
19435;DHT22;9853;50.848;4.108;2023-04-16T11:57:05;11.20;99.90
19435;DHT22;9853;50.848;4.108;2023-04-16T12:01:10;11.10;99.90
19435;DHT22;9853;50.848;4.108;2023-04-16T12:03:11;11.10;99.90
19435;DHT22;9853;50.848;4.108;2023-04-16T12:07:45;11.40;99.90
19435;DHT22;9853;50.848;4.108;2023-04-16T12:09:46;11.40;99.90
19435;DHT22;9853;50.848;4.108;2023-04-16T12:11:46;11.30;99.90
19435;DHT22;9853;50.848;4.108;2023-04-16T12:14:07;11.10;99.90
19435;DHT22;9853;50.848;4.108;2023-04-16T12:16:20;11.10;99.90
19435;DHT22;9853;50.848;4.108;2023-04-16T12:18:22;11.00;99.90
19435;DHT22;9853;50.848;4.108;2023-04-16T12:20:23;11.20;99.90
19435;DHT22;9853;50.848;4.108;2023-04-16T12:22:31;11.50;99.90
19435;DHT22;9853;50.848;4.108;2023-04-16T12:24:34;11.80;99.90
19435;DHT22;9853;50.848;4.108;2023-04-16T12:26:43;11.80;99.90
19435;DHT22;9853;50.848;4.108;2023-04-16T12:28:44;11.70;99.90
19435;DHT22;9853;50.848;4.108;2023-04-16T12:30:49;11.50;99.90
19435;DHT22;9853;50.848;4.108;2023-04-16T12:33:12;11.20;99.90
19435;DHT22;9853;50.848;4.108;2023-04-16T12:35:34;11.30;99.90
19435;DHT22;9853;50.848;4.108;2023-04-16T12:37:35;11.20;99.90
19435;DHT22;9853;50.848;4.108;2023-04-16T12:39:36;11.30;99.90
19435;DHT22;9853;50.848;4.108;2023-04-16T12:41:39;11.40;99.90
19435;DHT22;9853;50.848;4.108;2023-04-16T12:43:40;11.60;99.90
19435;DHT22;9853;50.848;4.108;2023-04-16T12:45:40;11.70;99.90
19435;DHT22;9853;50.848;4.108;2023-04-16T12:47:41;11.90;99.90
19435;DHT22;9853;50.848;4.108;2023-04-16T12:49:42;12.20;99.90
19435;DHT22;9853;50.848;4.108;2023-04-16T12:51:44;12.30;99.90
19435;DHT22;9853;50.848;4.108;2023-04-16T12:53:44;12.20;99.90
19435;DHT22;9853;50.848;4.108;2023-04-16T12:55:45;12.00;99.90
19435;DHT22;9853;50.848;4.108;2023-04-16T12:57:46;12.10;99.90
19435;DHT22;9853;50.848;4.108;2023-04-16T12:59:48;12.20;99.90
19435;DHT22;9853;50.848;4.108;2023-04-16T13:01:49;12.30;99.90
19435;DHT22;9853;50.848;4.108;2023-04-16T13:03:50;12.50;99.90
19435;DHT22;9853;50.848;4.108;2023-04-16T13:05:51;12.80;99.90
19435;DHT22;9853;50.848;4.108;2023-04-16T13:07:51;12.60;99.90
19435;DHT22;9853;50.848;4.108;2023-04-16T13:09:53;12.50;99.90
19435;DHT22;9853;50.848;4.108;2023-04-16T13:11:54;12.20;99.90
19435;DHT22;9853;50.848;4.108;2023-04-16T13:13:55;12.10;99.90
19435;DHT22;9853;50.848;4.108;2023-04-16T13:15:55;12.00;99.90
19435;DHT22;9853;50.848;4.108;2023-04-16T13:17:56;12.00;99.90
19435;DHT22;9853;50.848;4.108;2023-04-16T13:19:57;12.20;99.90
19435;DHT22;9853;50.848;4.108;2023-04-16T13:21:58;12.30;99.90
19435;DHT22;9853;50.848;4.108;2023-04-16T13:23:58;12.20;99.90
19435;DHT22;9853;50.848;4.108;2023-04-16T13:25:59;12.00;99.90
19435;DHT22;9853;50.848;4.108;2023-04-16T13:28:00;11.80;99.90
19435;DHT22;9853;50.848;4.108;2023-04-16T13:30:01;11.50;99.90
19435;DHT22;9853;50.848;4.108;2023-04-16T13:32:02;11.60;99.90
19435;DHT22;9853;50.848;4.108;2023-04-16T13:34:03;11.60;99.90
19435;DHT22;9853;50.848;4.108;2023-04-16T13:36:04;11.60;99.90
19435;DHT22;9853;50.848;4.108;2023-04-16T13:38:05;11.70;99.90
19435;DHT22;9853;50.848;4.108;2023-04-16T13:40:07;11.70;99.90
19435;DHT22;9853;50.848;4.108;2023-04-16T13:42:08;12.00;99.90
19435;DHT22;9853;50.848;4.108;2023-04-16T13:44:08;12.30;99.90
19435;DHT22;9853;50.848;4.108;2023-04-16T13:46:09;12.40;99.90
19435;DHT22;9853;50.848;4.108;2023-04-16T13:48:10;12.50;99.90
19435;DHT22;9853;50.848;4.108;2023-04-16T13:50:11;12.30;99.90
19435;DHT22;9853;50.848;4.108;2023-04-16T13:52:12;12.40;99.90
19435;DHT22;9853;50.848;4.108;2023-04-16T13:54:12;12.30;99.90
19435;DHT22;9853;50.848;4.108;2023-04-16T13:56:13;12.10;99.90
19435;DHT22;9853;50.848;4.108;2023-04-16T13:58:15;11.80;99.90
19435;DHT22;9853;50.848;4.108;2023-04-16T14:00:16;11.70;99.90
19435;DHT22;9853;50.848;4.108;2023-04-16T14:02:17;11.70;99.90
19435;DHT22;9853;50.848;4.108;2023-04-16T14:04:17;11.80;99.90
19435;DHT22;9853;50.848;4.108;2023-04-16T14:06:18;12.00;99.90
19435;DHT22;9853;50.848;4.108;2023-04-16T14:08:19;12.30;99.90
19435;DHT22;9853;50.848;4.108;2023-04-16T14:10:20;12.40;99.90
19435;DHT22;9853;50.848;4.108;2023-04-16T14:12:21;12.60;99.90
19435;DHT22;9853;50.848;4.108;2023-04-16T14:14:22;12.80;99.90
19435;DHT22;9853;50.848;4.108;2023-04-16T14:16:22;12.90;99.90
19435;DHT22;9853;50.848;4.108;2023-04-16T14:18:23;12.90;99.90
19435;DHT22;9853;50.848;4.108;2023-04-16T14:20:24;12.80;99.90
19435;DHT22;9853;50.848;4.108;2023-04-16T14:22:25;12.80;99.90
19435;DHT22;9853;50.848;4.108;2023-04-16T14:24:25;12.90;99.90
19435;DHT22;9853;50.848;4.108;2023-04-16T14:26:26;13.00;99.90
19435;DHT22;9853;50.848;4.108;2023-04-16T14:28:27;13.00;99.90
19435;DHT22;9853;50.848;4.108;2023-04-16T14:30:28;13.20;99.90
19435;DHT22;9853;50.848;4.108;2023-04-16T14:32:28;12.80;99.90
19435;DHT22;9853;50.848;4.108;2023-04-16T14:34:29;12.80;99.90
19435;DHT22;9853;50.848;4.108;2023-04-16T14:36:30;13.20;99.90
19435;DHT22;9853;50.848;4.108;2023-04-16T14:38:31;13.30;99.90
19435;DHT22;9853;50.848;4.108;2023-04-16T14:40:33;13.30;99.90
19435;DHT22;9853;50.848;4.108;2023-04-16T14:42:34;13.30;99.90
19435;DHT22;9853;50.848;4.108;2023-04-16T14:44:38;13.10;99.90
19435;DHT22;9853;50.848;4.108;2023-04-16T14:46:39;13.00;99.90
19435;DHT22;9853;50.848;4.108;2023-04-16T14:48:40;13.00;99.90
19435;DHT22;9853;50.848;4.108;2023-04-16T14:50:41;13.00;99.90
19435;DHT22;9853;50.848;4.108;2023-04-16T14:52:43;13.00;99.90
19435;DHT22;9853;50.848;4.108;2023-04-16T14:54:44;12.90;99.90
19435;DHT22;9853;50.848;4.108;2023-04-16T14:56:45;12.80;99.90
19435;DHT22;9853;50.848;4.108;2023-04-16T14:58:46;12.70;99.90
19435;DHT22;9853;50.848;4.108;2023-04-16T15:00:47;12.70;99.90
19435;DHT22;9853;50.848;4.108;2023-04-16T15:02:48;12.60;99.90
19435;DHT22;9853;50.848;4.108;2023-04-16T15:04:49;12.40;99.90
19435;DHT22;9853;50.848;4.108;2023-04-16T15:06:50;12.30;99.90
19435;DHT22;9853;50.848;4.108;2023-04-16T15:08:51;12.20;99.90
19435;DHT22;9853;50.848;4.108;2023-04-16T15:10:51;12.10;99.90
19435;DHT22;9853;50.848;4.108;2023-04-16T15:12:52;12.20;99.90
19435;DHT22;9853;50.848;4.108;2023-04-16T15:14:53;12.00;99.90
19435;DHT22;9853;50.848;4.108;2023-04-16T15:16:54;12.20;99.90
19435;DHT22;9853;50.848;4.108;2023-04-16T15:18:54;12.20;99.90
19435;DHT22;9853;50.848;4.108;2023-04-16T15:20:55;12.20;99.90
19435;DHT22;9853;50.848;4.108;2023-04-16T15:22:56;12.10;99.90
19435;DHT22;9853;50.848;4.108;2023-04-16T15:24:57;12.00;99.90
19435;DHT22;9853;50.848;4.108;2023-04-16T15:26:57;11.80;99.90
19435;DHT22;9853;50.848;4.108;2023-04-16T15:28:58;11.90;99.90
19435;DHT22;9853;50.848;4.108;2023-04-16T15:30:59;12.00;99.90
19435;DHT22;9853;50.848;4.108;2023-04-16T15:33:00;12.00;99.90
19435;DHT22;9853;50.848;4.108;2023-04-16T15:35:02;11.90;99.90
19435;DHT22;9853;50.848;4.108;2023-04-16T15:37:04;11.70;99.90
19435;DHT22;9853;50.848;4.108;2023-04-16T15:39:05;11.70;99.90
19435;DHT22;9853;50.848;4.108;2023-04-16T15:41:05;11.70;99.90
19435;DHT22;9853;50.848;4.108;2023-04-16T15:43:06;11.70;99.90
19435;DHT22;9853;50.848;4.108;2023-04-16T15:45:07;11.70;99.90
19435;DHT22;9853;50.848;4.108;2023-04-16T15:47:08;11.60;99.90
19435;DHT22;9853;50.848;4.108;2023-04-16T15:49:09;11.60;99.90
19435;DHT22;9853;50.848;4.108;2023-04-16T15:51:10;11.60;99.90
19435;DHT22;9853;50.848;4.108;2023-04-16T15:53:10;11.50;99.90
19435;DHT22;9853;50.848;4.108;2023-04-16T15:55:13;11.50;99.90
19435;DHT22;9853;50.848;4.108;2023-04-16T15:57:14;11.40;99.90
19435;DHT22;9853;50.848;4.108;2023-04-16T15:59:15;11.40;99.90
19435;DHT22;9853;50.848;4.108;2023-04-16T16:01:16;11.40;99.90
19435;DHT22;9853;50.848;4.108;2023-04-16T16:03:17;11.50;99.90
19435;DHT22;9853;50.848;4.108;2023-04-16T16:05:18;11.60;99.90
19435;DHT22;9853;50.848;4.108;2023-04-16T16:07:19;11.70;99.90
19435;DHT22;9853;50.848;4.108;2023-04-16T16:09:20;11.80;99.90
19435;DHT22;9853;50.848;4.108;2023-04-16T16:11:26;11.80;99.90
19435;DHT22;9853;50.848;4.108;2023-04-16T16:13:27;11.90;99.90
19435;DHT22;9853;50.848;4.108;2023-04-16T16:15:28;11.80;99.90
19435;DHT22;9853;50.848;4.108;2023-04-16T16:17:28;11.90;99.90
19435;DHT22;9853;50.848;4.108;2023-04-16T16:19:31;12.00;99.90
19435;DHT22;9853;50.848;4.108;2023-04-16T16:21:31;12.10;99.90
19435;DHT22;9853;50.848;4.108;2023-04-16T16:23:32;12.00;99.90
19435;DHT22;9853;50.848;4.108;2023-04-16T16:25:33;12.00;99.90
19435;DHT22;9853;50.848;4.108;2023-04-16T16:27:34;11.90;99.90
19435;DHT22;9853;50.848;4.108;2023-04-16T16:29:35;12.00;99.90
19435;DHT22;9853;50.848;4.108;2023-04-16T16:31:36;12.00;99.90
19435;DHT22;9853;50.848;4.108;2023-04-16T16:33:37;12.10;99.90
19435;DHT22;9853;50.848;4.108;2023-04-16T16:35:38;12.30;99.90
19435;DHT22;9853;50.848;4.108;2023-04-16T16:37:38;12.40;99.90
19435;DHT22;9853;50.848;4.108;2023-04-16T16:39:39;12.40;99.90
19435;DHT22;9853;50.848;4.108;2023-04-16T16:41:40;12.40;99.90
19435;DHT22;9853;50.848;4.108;2023-04-16T16:43:41;12.40;99.90
19435;DHT22;9853;50.848;4.108;2023-04-16T16:45:42;12.80;99.90
19435;DHT22;9853;50.848;4.108;2023-04-16T16:47:43;12.70;99.90
19435;DHT22;9853;50.848;4.108;2023-04-16T16:49:44;12.80;99.90
19435;DHT22;9853;50.848;4.108;2023-04-16T16:51:46;13.00;99.90
19435;DHT22;9853;50.848;4.108;2023-04-16T16:53:47;12.80;99.90
19435;DHT22;9853;50.848;4.108;2023-04-16T16:55:47;12.60;99.90
19435;DHT22;9853;50.848;4.108;2023-04-16T16:57:48;12.50;99.90
19435;DHT22;9853;50.848;4.108;2023-04-16T16:59:49;12.40;99.90
19435;DHT22;9853;50.848;4.108;2023-04-16T17:01:50;12.30;99.90
19435;DHT22;9853;50.848;4.108;2023-04-16T17:03:51;12.30;99.90
19435;DHT22;9853;50.848;4.108;2023-04-16T17:05:52;12.40;99.90
19435;DHT22;9853;50.848;4.108;2023-04-16T17:07:52;12.50;99.90
19435;DHT22;9853;50.848;4.108;2023-04-16T17:09:53;12.50;99.90
19435;DHT22;9853;50.848;4.108;2023-04-16T17:11:54;12.40;99.90
19435;DHT22;9853;50.848;4.108;2023-04-16T17:13:54;12.50;99.90
19435;DHT22;9853;50.848;4.108;2023-04-16T17:15:55;12.50;99.90
19435;DHT22;9853;50.848;4.108;2023-04-16T17:17:56;12.50;99.90
19435;DHT22;9853;50.848;4.108;2023-04-16T17:19:57;12.50;99.90
19435;DHT22;9853;50.848;4.108;2023-04-16T17:21:57;12.50;99.90
19435;DHT22;9853;50.848;4.108;2023-04-16T17:23:58;12.60;99.90
19435;DHT22;9853;50.848;4.108;2023-04-16T17:25:59;12.70;99.90
19435;DHT22;9853;50.848;4.108;2023-04-16T17:27:59;12.70;99.90
19435;DHT22;9853;50.848;4.108;2023-04-16T17:30:01;12.70;99.90
19435;DHT22;9853;50.848;4.108;2023-04-16T17:32:02;12.80;99.90
19435;DHT22;9853;50.848;4.108;2023-04-16T17:34:03;12.70;99.90
19435;DHT22;9853;50.848;4.108;2023-04-16T17:36:06;12.60;99.90
19435;DHT22;9853;50.848;4.108;2023-04-16T17:38:06;12.50;99.90
19435;DHT22;9853;50.848;4.108;2023-04-16T17:40:08;12.70;99.90
19435;DHT22;9853;50.848;4.108;2023-04-16T17:42:09;12.70;99.90
19435;DHT22;9853;50.848;4.108;2023-04-16T17:44:10;12.70;99.90
19435;DHT22;9853;50.848;4.108;2023-04-16T17:46:10;12.60;99.90
19435;DHT22;9853;50.848;4.108;2023-04-16T17:48:11;12.70;99.90
19435;DHT22;9853;50.848;4.108;2023-04-16T17:50:12;12.70;99.90
19435;DHT22;9853;50.848;4.108;2023-04-16T17:52:13;12.40;99.90
19435;DHT22;9853;50.848;4.108;2023-04-16T17:54:14;12.60;99.90
19435;DHT22;9853;50.848;4.108;2023-04-16T17:56:14;12.60;99.90
19435;DHT22;9853;50.848;4.108;2023-04-16T17:58:15;12.70;99.90
19435;DHT22;9853;50.848;4.108;2023-04-16T18:00:16;12.80;99.90
19435;DHT22;9853;50.848;4.108;2023-04-16T18:02:18;12.40;99.90
19435;DHT22;9853;50.848;4.108;2023-04-16T18:04:19;12.60;99.90
19435;DHT22;9853;50.848;4.108;2023-04-16T18:06:20;12.80;99.90
19435;DHT22;9853;50.848;4.108;2023-04-16T18:08:22;12.80;99.90
19435;DHT22;9853;50.848;4.108;2023-04-16T18:10:24;12.80;99.90
19435;DHT22;9853;50.848;4.108;2023-04-16T18:12:25;12.90;99.90
19435;DHT22;9853;50.848;4.108;2023-04-16T18:14:26;13.10;99.90
19435;DHT22;9853;50.848;4.108;2023-04-16T18:16:27;13.00;99.90
19435;DHT22;9853;50.848;4.108;2023-04-16T18:18:27;12.70;99.90
19435;DHT22;9853;50.848;4.108;2023-04-16T18:20:28;12.50;99.90
19435;DHT22;9853;50.848;4.108;2023-04-16T18:22:29;12.40;99.90
19435;DHT22;9853;50.848;4.108;2023-04-16T18:24:31;12.40;99.90
19435;DHT22;9853;50.848;4.108;2023-04-16T18:26:34;12.10;99.90
19435;DHT22;9853;50.848;4.108;2023-04-16T18:28:35;12.50;99.90
19435;DHT22;9853;50.848;4.108;2023-04-16T18:30:36;12.70;99.90
19435;DHT22;9853;50.848;4.108;2023-04-16T18:32:37;12.80;99.90
19435;DHT22;9853;50.848;4.108;2023-04-16T18:34:38;12.70;99.90
19435;DHT22;9853;50.848;4.108;2023-04-16T18:36:39;12.60;99.90
19435;DHT22;9853;50.848;4.108;2023-04-16T18:38:39;12.40;99.90
19435;DHT22;9853;50.848;4.108;2023-04-16T18:40:40;12.20;99.90
19435;DHT22;9853;50.848;4.108;2023-04-16T18:42:41;12.00;99.90
19435;DHT22;9853;50.848;4.108;2023-04-16T18:44:42;12.00;99.90
19435;DHT22;9853;50.848;4.108;2023-04-16T18:46:43;11.80;99.90
19435;DHT22;9853;50.848;4.108;2023-04-16T18:48:43;11.60;99.90
19435;DHT22;9853;50.848;4.108;2023-04-16T18:50:44;11.50;99.90
19435;DHT22;9853;50.848;4.108;2023-04-16T18:52:45;11.40;99.90
19435;DHT22;9853;50.848;4.108;2023-04-16T18:54:46;11.30;99.90
19435;DHT22;9853;50.848;4.108;2023-04-16T18:56:47;11.20;99.90
19435;DHT22;9853;50.848;4.108;2023-04-16T18:58:47;11.00;99.90
19435;DHT22;9853;50.848;4.108;2023-04-16T19:00:55;11.00;99.90
19435;DHT22;9853;50.848;4.108;2023-04-16T19:02:57;11.30;99.90
19435;DHT22;9853;50.848;4.108;2023-04-16T19:04:58;11.50;99.90
19435;DHT22;9853;50.848;4.108;2023-04-16T19:06:59;11.60;99.90
19435;DHT22;9853;50.848;4.108;2023-04-16T19:09:00;11.60;99.90
19435;DHT22;9853;50.848;4.108;2023-04-16T19:11:01;11.50;99.90